createdAt,value
2018-04-22T00:01:49.364Z,87.40
2018-04-22T00:04:16.848Z,86.90
2018-04-22T00:06:44.329Z,87.20
2018-04-22T00:09:13.104Z,87.60
2018-04-22T00:11:41.331Z,87.30
2018-04-22T00:14:08.841Z,87.30
2018-04-22T00:16:37.081Z,87.90
2018-04-22T00:19:04.576Z,88.60
2018-04-22T00:21:32.833Z,88.00
2018-04-22T00:24:00.338Z,88.00
2018-04-22T00:26:27.842Z,88.20
2018-04-22T00:28:55.338Z,87.80
2018-04-22T00:31:22.812Z,88.60
2018-04-22T00:33:50.314Z,88.70
2018-04-22T00:36:17.796Z,88.70
2018-04-22T00:38:46.039Z,89.70
2018-04-22T00:41:13.659Z,89.50
2018-04-22T00:43:41.163Z,89.90
2018-04-22T00:46:09.400Z,90.20
2018-04-22T00:48:36.917Z,90.20
2018-04-22T00:51:05.170Z,90.40
2018-04-22T00:56:31.811Z,90.50
2018-04-22T00:58:59.305Z,90.40
2018-04-22T01:01:27.594Z,90.60
2018-04-22T01:03:55.831Z,90.80
2018-04-22T01:06:23.317Z,90.80
2018-04-22T01:08:51.579Z,91.20
2018-04-22T01:11:19.048Z,91.10
2018-04-22T01:13:47.340Z,91.20
2018-04-22T01:16:14.815Z,91.20
2018-04-22T01:18:42.299Z,91.30
2018-04-22T01:21:09.756Z,91.30
2018-04-22T01:23:37.244Z,91.40
2018-04-22T01:26:04.714Z,91.50
2018-04-22T01:28:32.310Z,91.50
2018-04-22T01:31:00.580Z,91.50
2018-04-22T01:33:28.059Z,91.40
2018-04-22T01:35:55.605Z,91.40
2018-04-22T01:38:23.838Z,91.40
2018-04-22T01:40:51.440Z,91.40
2018-04-22T01:43:19.682Z,91.80
2018-04-22T01:45:47.172Z,91.80
2018-04-22T01:48:15.487Z,91.90
2018-04-22T01:50:43.004Z,91.90
2018-04-22T01:53:11.245Z,92.00
2018-04-22T01:55:38.842Z,92.00
2018-04-22T01:58:07.079Z,92.20
2018-04-22T02:00:34.607Z,92.10
2018-04-22T02:03:02.088Z,92.20
2018-04-22T02:05:29.582Z,92.20
2018-04-22T02:07:57.079Z,92.40
2018-04-22T02:10:24.646Z,92.50
2018-04-22T02:12:52.112Z,92.60
2018-04-22T02:15:19.710Z,92.60
2018-04-22T02:17:47.948Z,92.90
2018-04-22T02:20:15.444Z,92.90
2018-04-22T02:22:43.679Z,93.40
2018-04-22T02:25:11.191Z,93.40
2018-04-22T02:27:38.667Z,93.40
2018-04-22T02:30:06.191Z,93.50
2018-04-22T02:32:34.429Z,93.20
2018-04-22T02:35:01.925Z,93.20
2018-04-22T02:37:30.167Z,93.40
2018-04-22T02:39:57.668Z,93.40
2018-04-22T02:42:25.203Z,93.50
2018-04-22T02:44:52.822Z,93.50
2018-04-22T02:47:20.339Z,93.50
2018-04-22T02:49:48.590Z,93.80
2018-04-22T02:52:16.094Z,93.80
2018-04-22T02:54:43.578Z,94.30
2018-04-22T02:57:11.046Z,94.00
2018-04-22T02:59:38.538Z,94.00
2018-04-22T03:02:06.777Z,94.10
2018-04-22T03:04:34.264Z,94.00
2018-04-22T03:07:02.580Z,94.30
2018-04-22T03:09:30.099Z,94.20
2018-04-22T03:11:58.338Z,94.40
2018-04-22T03:14:25.822Z,94.40
2018-04-22T03:16:53.356Z,94.40
2018-04-22T03:19:20.850Z,94.60
2018-04-22T03:21:49.157Z,94.40
2018-04-22T03:24:16.700Z,94.40
2018-04-22T03:26:44.938Z,94.80
2018-04-22T03:29:12.466Z,94.80
2018-04-22T03:31:40.007Z,95.00
2018-04-22T03:34:07.507Z,94.70
2018-04-22T03:36:35.025Z,95.20
2018-04-22T03:39:02.565Z,95.40
2018-04-22T03:41:30.838Z,95.40
2018-04-22T03:43:59.072Z,95.40
2018-04-22T03:46:26.592Z,95.40
2018-04-22T03:48:54.072Z,95.70
2018-04-22T03:51:21.567Z,95.70
2018-04-22T03:53:49.047Z,95.80
2018-04-22T03:56:16.532Z,95.90
2018-04-22T03:58:44.002Z,95.80
2018-04-22T04:01:11.482Z,95.90
2018-04-22T04:03:40.449Z,95.90
2018-04-22T04:06:07.983Z,95.80
2018-04-22T04:08:35.442Z,96.00
2018-04-22T04:11:02.959Z,96.00
2018-04-22T04:13:30.517Z,96.30
2018-04-22T04:15:58.762Z,96.80
2018-04-22T04:21:43.726Z,96.70
2018-04-22T04:27:19.703Z,96.70
2018-04-22T04:29:47.186Z,96.60
2018-04-22T04:32:14.670Z,96.70
2018-04-22T04:34:42.165Z,96.50
2018-04-22T04:37:09.727Z,96.40
2018-04-22T04:39:37.199Z,96.60
2018-04-22T04:42:04.701Z,96.60
2018-04-22T04:44:32.944Z,96.70
2018-04-22T04:47:00.539Z,96.70
2018-04-22T04:49:28.792Z,96.80
2018-04-22T04:51:56.280Z,96.80
2018-04-22T04:54:24.557Z,96.70
2018-04-22T04:56:52.035Z,96.70
2018-04-22T04:59:19.507Z,97.00
2018-04-22T05:01:47.023Z,97.10
2018-04-22T05:04:15.263Z,97.60
2018-04-22T05:06:42.775Z,97.30
2018-04-22T05:09:10.244Z,97.40
2018-04-22T05:11:37.741Z,97.50
2018-04-22T05:14:05.241Z,97.10
2018-04-22T05:16:33.486Z,97.20
2018-04-22T05:19:00.968Z,97.20
2018-04-22T05:21:29.229Z,97.10
2018-04-22T05:23:57.483Z,97.30
2018-04-22T05:26:25.064Z,97.00
2018-04-22T05:28:52.543Z,97.10
2018-04-22T05:31:20.037Z,97.20
2018-04-22T05:33:47.541Z,97.00
2018-04-22T05:36:15.801Z,96.80
2018-04-22T05:38:43.271Z,96.80
2018-04-22T05:41:10.748Z,96.80
2018-04-22T05:43:38.309Z,97.10
2018-04-22T05:46:05.816Z,96.80
2018-04-22T05:48:33.298Z,96.90
2018-04-22T05:51:00.863Z,96.70
2018-04-22T05:53:29.105Z,96.80
2018-04-22T05:55:56.621Z,96.70
2018-04-22T05:58:24.191Z,96.80
2018-04-22T06:00:51.672Z,96.90
2018-04-22T06:03:19.164Z,96.70
2018-04-22T06:05:46.656Z,96.60
2018-04-22T06:08:14.125Z,96.40
2018-04-22T06:10:41.681Z,96.40
2018-04-22T06:13:09.149Z,96.40
2018-04-22T06:15:36.639Z,96.20
2018-04-22T06:18:04.112Z,96.10
2018-04-22T06:20:32.366Z,95.90
2018-04-22T06:22:59.838Z,95.90
2018-04-22T06:25:27.354Z,95.90
2018-04-22T06:27:54.837Z,95.90
2018-04-22T06:30:22.326Z,95.90
2018-04-22T06:32:50.628Z,96.00
2018-04-22T06:35:18.135Z,96.00
2018-04-22T06:37:45.618Z,96.00
2018-04-22T06:40:13.971Z,96.30
2018-04-22T06:42:41.446Z,96.70
2018-04-22T06:45:09.672Z,96.30
2018-04-22T06:47:37.164Z,96.20
2018-04-22T06:50:04.648Z,96.40
2018-04-22T06:52:32.193Z,96.30
2018-04-22T06:54:59.665Z,96.20
2018-04-22T06:57:27.276Z,96.10
2018-04-22T06:59:56.251Z,95.90
2018-04-22T07:02:23.744Z,95.90
2018-04-22T07:04:51.982Z,95.50
2018-04-22T07:07:19.555Z,95.50
2018-04-22T07:09:47.115Z,95.30
2018-04-22T07:12:14.601Z,95.20
2018-04-22T07:14:42.844Z,94.70
2018-04-22T07:17:10.338Z,94.70
2018-04-22T07:19:38.594Z,94.00
2018-04-22T07:22:06.085Z,94.00
2018-04-22T07:24:33.556Z,93.70
2018-04-22T07:27:01.084Z,93.60
2018-04-22T07:29:29.344Z,93.40
2018-04-22T07:31:56.894Z,93.40
2018-04-22T07:34:24.367Z,93.30
2018-04-22T07:36:52.632Z,93.30
2018-04-22T07:39:20.871Z,93.10
2018-04-22T07:41:48.350Z,93.10
2018-04-22T07:44:15.819Z,93.20
2018-04-22T07:46:43.314Z,93.20
2018-04-22T07:49:10.771Z,93.00
2018-04-22T07:51:38.277Z,93.00
2018-04-22T07:54:05.780Z,93.00
2018-04-22T07:56:34.028Z,92.90
2018-04-22T07:59:02.277Z,92.70
2018-04-22T08:01:29.765Z,92.70
2018-04-22T08:03:57.253Z,92.60
2018-04-22T08:06:24.792Z,92.20
2018-04-22T08:08:53.027Z,92.10
2018-04-22T08:11:20.522Z,92.00
2018-04-22T08:13:48.789Z,92.10
2018-04-22T08:16:16.330Z,91.80
2018-04-22T08:18:43.774Z,91.70
2018-04-22T08:21:11.312Z,91.50
2018-04-22T08:23:38.787Z,91.30
2018-04-22T08:26:06.276Z,91.20
2018-04-22T08:28:34.615Z,91.10
2018-04-22T08:31:02.097Z,90.90
2018-04-22T08:33:29.574Z,90.90
2018-04-22T08:35:57.065Z,90.80
2018-04-22T08:38:24.529Z,90.70
2018-04-22T08:40:52.046Z,90.60
2018-04-22T08:43:19.512Z,90.50
2018-04-22T08:45:47.768Z,90.40
2018-04-22T08:48:15.339Z,90.00
2018-04-22T08:50:42.889Z,90.00
2018-04-22T08:53:10.340Z,90.00
2018-04-22T08:55:37.827Z,90.00
2018-04-22T08:58:06.095Z,89.90
2018-04-22T09:00:34.337Z,89.30
2018-04-22T09:03:01.835Z,89.30
2018-04-22T09:05:30.072Z,87.70
2018-04-22T09:07:57.557Z,87.70
2018-04-22T09:10:25.041Z,87.40
2018-04-22T09:12:52.519Z,87.80
2018-04-22T09:15:20.012Z,87.50
2018-04-22T09:17:47.503Z,86.90
2018-04-22T09:20:15.806Z,86.50
2018-04-22T09:22:43.323Z,86.30
2018-04-22T09:25:11.564Z,85.90
2018-04-22T09:27:39.056Z,85.80
2018-04-22T09:30:06.542Z,85.50
2018-04-22T09:32:34.056Z,85.60
2018-04-22T09:35:01.535Z,85.00
2018-04-22T09:37:29.848Z,85.70
2018-04-22T09:39:57.364Z,85.80
2018-04-22T09:42:25.641Z,85.30
2018-04-22T09:44:53.875Z,85.80
2018-04-22T09:47:21.360Z,85.50
2018-04-22T09:49:49.612Z,85.50
2018-04-22T09:52:17.099Z,85.50
2018-04-22T09:54:45.340Z,85.30
2018-04-22T09:57:12.913Z,85.30
2018-04-22T09:59:40.393Z,85.50
2018-04-22T10:02:14.343Z,86.00
2018-04-22T10:04:41.808Z,85.90
2018-04-22T10:07:09.320Z,86.20
2018-04-22T10:09:36.790Z,86.80
2018-04-22T10:12:04.279Z,85.30
2018-04-22T10:14:31.770Z,84.20
2018-04-22T10:17:00.022Z,83.90
2018-04-22T10:19:27.561Z,83.50
2018-04-22T10:21:55.071Z,83.40
2018-04-22T10:24:22.525Z,82.40
2018-04-22T10:26:50.830Z,82.20
2018-04-22T10:29:18.296Z,82.20
2018-04-22T10:31:45.794Z,82.10
2018-04-22T10:34:13.304Z,81.90
2018-04-22T10:36:40.865Z,82.30
2018-04-22T10:39:08.340Z,82.20
2018-04-22T10:41:35.828Z,82.70
2018-04-22T10:44:03.312Z,82.40
2018-04-22T10:46:31.574Z,82.20
2018-04-22T10:48:59.142Z,82.10
2018-04-22T10:51:27.423Z,81.80
2018-04-22T10:53:55.660Z,81.10
2018-04-22T10:56:23.197Z,81.00
2018-04-22T10:58:50.660Z,80.60
2018-04-22T11:01:19.138Z,80.60
2018-04-22T11:03:46.630Z,80.80
2018-04-22T11:06:14.120Z,80.20
2018-04-22T11:08:41.578Z,78.80
2018-04-22T11:11:09.067Z,78.80
2018-04-22T11:13:36.584Z,78.90
2018-04-22T11:16:04.843Z,76.40
2018-04-22T11:18:32.329Z,76.40
2018-04-22T11:20:59.858Z,76.10
2018-04-22T11:23:27.348Z,76.30
2018-04-22T11:25:54.833Z,75.70
2018-04-22T11:28:22.334Z,76.40
2018-04-22T11:30:49.827Z,77.20
2018-04-22T11:33:17.371Z,77.10
2018-04-22T11:35:44.854Z,77.30
2018-04-22T11:38:12.880Z,76.30
2018-04-22T11:40:41.121Z,75.30
2018-04-22T11:43:08.623Z,75.30
2018-04-22T11:45:36.876Z,75.80
2018-04-22T11:48:04.377Z,75.80
2018-04-22T11:50:31.853Z,75.90
2018-04-22T11:52:59.345Z,75.80
2018-04-22T11:55:27.575Z,75.70
2018-04-22T11:57:55.598Z,75.70
2018-04-22T12:00:23.093Z,75.50
2018-04-22T12:02:50.587Z,75.50
2018-04-22T12:05:18.083Z,75.40
2018-04-22T12:07:46.328Z,74.90
2018-04-22T12:10:13.846Z,74.80
2018-04-22T12:12:41.369Z,74.00
2018-04-22T12:15:09.602Z,74.50
2018-04-22T12:17:37.085Z,74.20
2018-04-22T12:20:04.555Z,74.10
2018-04-22T12:22:32.154Z,74.50
2018-04-22T12:24:59.631Z,74.50
2018-04-22T12:27:27.149Z,74.40
2018-04-22T12:29:55.397Z,74.50
2018-04-22T12:32:22.961Z,74.40
2018-04-22T12:34:50.532Z,73.00
2018-04-22T12:37:18.784Z,72.00
2018-04-22T12:39:46.260Z,72.00
2018-04-22T12:42:13.752Z,72.10
2018-04-22T12:44:41.221Z,72.00
2018-04-22T12:47:08.728Z,73.00
2018-04-22T12:49:36.196Z,73.30
2018-04-22T12:52:04.451Z,72.20
2018-04-22T12:54:31.945Z,72.10
2018-04-22T12:57:00.324Z,70.60
2018-04-22T12:59:29.440Z,70.70
2018-04-22T13:01:56.952Z,70.60
2018-04-22T13:04:24.411Z,70.40
2018-04-22T13:06:52.729Z,67.50
2018-04-22T13:09:20.253Z,67.40
2018-04-22T13:11:48.517Z,67.90
2018-04-22T13:14:15.983Z,67.70
2018-04-22T13:16:44.248Z,69.60
2018-04-22T13:19:11.863Z,68.90
2018-04-22T13:21:40.232Z,68.50
2018-04-22T13:24:07.727Z,67.40
2018-04-22T13:26:35.187Z,66.50
2018-04-22T13:29:02.680Z,65.90
2018-04-22T13:31:30.915Z,65.40
2018-04-22T13:33:58.415Z,65.20
2018-04-22T13:36:25.893Z,65.00
2018-04-22T13:38:53.377Z,63.90
2018-04-22T13:41:20.913Z,63.40
2018-04-22T13:43:48.401Z,61.30
2018-04-22T13:46:15.928Z,60.40
2018-04-22T13:48:43.452Z,58.60
2018-04-22T13:51:11.865Z,59.20
2018-04-22T13:53:39.566Z,59.10
2018-04-22T13:56:07.044Z,59.40
2018-04-22T13:58:34.534Z,58.90
2018-04-22T14:01:02.042Z,58.00
2018-04-22T14:03:29.672Z,58.50
2018-04-22T14:05:57.152Z,59.00
2018-04-22T14:08:24.747Z,59.10
2018-04-22T14:10:52.985Z,59.10
2018-04-22T14:13:20.475Z,59.00
2018-04-22T14:15:48.067Z,59.30
2018-04-22T14:18:15.703Z,58.10
2018-04-22T14:20:43.978Z,56.90
2018-04-22T14:23:12.239Z,56.30
2018-04-22T14:25:39.702Z,56.20
2018-04-22T14:28:08.031Z,54.10
2018-04-22T14:30:35.498Z,54.00
2018-04-22T14:33:02.994Z,53.50
2018-04-22T14:35:31.232Z,53.70
2018-04-22T14:37:58.721Z,53.70
2018-04-22T14:40:27.019Z,52.90
2018-04-22T14:42:55.268Z,53.30
2018-04-22T14:45:34.578Z,53.30
2018-04-22T14:48:02.177Z,53.30
2018-04-22T14:50:30.438Z,53.90
2018-04-22T14:52:57.924Z,53.90
2018-04-22T14:55:25.403Z,53.70
2018-04-22T14:57:52.993Z,53.60
2018-04-22T15:00:20.483Z,53.90
2018-04-22T15:02:48.764Z,54.50
2018-04-22T15:05:17.084Z,53.90
2018-04-22T15:07:45.316Z,53.30
2018-04-22T15:10:13.588Z,53.80
2018-04-22T15:12:41.886Z,49.50
2018-04-22T15:15:09.354Z,49.40
2018-04-22T15:17:36.840Z,47.30
2018-04-22T15:20:04.388Z,46.00
2018-04-22T15:22:32.032Z,42.80
2018-04-22T15:24:59.554Z,40.00
2018-04-22T15:27:27.006Z,38.60
2018-04-22T15:29:54.496Z,38.50
2018-04-22T15:32:21.976Z,38.20
2018-04-22T15:34:49.457Z,36.40
2018-04-22T15:37:16.918Z,37.00
2018-04-22T15:39:44.427Z,36.10
2018-04-22T15:42:12.000Z,34.70
2018-04-22T15:44:39.478Z,34.40
2018-04-22T15:47:06.951Z,35.00
2018-04-22T15:49:34.448Z,35.00
2018-04-22T15:52:02.677Z,35.60
2018-04-22T15:54:30.168Z,35.60
2018-04-22T15:56:58.441Z,36.80
2018-04-22T15:59:26.709Z,37.80
2018-04-22T16:01:54.196Z,37.40
2018-04-22T16:04:21.711Z,38.30
2018-04-22T16:06:49.231Z,38.70
2018-04-22T16:09:16.707Z,39.30
2018-04-22T16:11:44.207Z,39.70
2018-04-22T16:14:12.456Z,41.00
2018-04-22T16:16:39.914Z,41.00
2018-04-22T16:19:07.498Z,41.60
2018-04-22T16:21:35.767Z,42.70
2018-04-22T16:24:04.032Z,43.10
2018-04-22T16:26:31.605Z,43.70
2018-04-22T16:28:59.105Z,43.60
2018-04-22T16:31:26.563Z,44.10
2018-04-22T16:33:54.045Z,44.70
2018-04-22T16:36:21.509Z,45.20
2018-04-22T16:38:48.988Z,45.40
2018-04-22T16:41:16.467Z,45.40
2018-04-22T16:43:44.732Z,46.60
2018-04-22T16:46:12.970Z,46.80
2018-04-22T16:48:40.452Z,46.80
2018-04-22T16:51:07.982Z,47.60
2018-04-22T16:53:36.224Z,46.80
2018-04-22T16:56:03.694Z,46.80
2018-04-22T16:58:31.179Z,46.20
2018-04-22T17:00:58.650Z,46.70
2018-04-22T17:03:26.214Z,45.50
2018-04-22T17:05:53.849Z,45.70
2018-04-22T17:08:21.293Z,45.70
2018-04-22T17:10:48.767Z,46.00
2018-04-22T17:13:16.264Z,46.30
2018-04-22T17:15:44.499Z,47.20
2018-04-22T17:18:12.108Z,47.10
2018-04-22T17:20:39.576Z,47.80
2018-04-22T17:23:07.081Z,48.30
2018-04-22T17:25:34.614Z,48.70
2018-04-22T17:28:02.128Z,49.00
2018-04-22T17:30:30.376Z,49.30
2018-04-22T17:32:57.924Z,49.20
2018-04-22T17:35:25.422Z,49.70
2018-04-22T17:37:53.676Z,50.00
2018-04-22T17:40:21.415Z,49.90
2018-04-22T17:42:48.883Z,50.20
2018-04-22T17:45:16.362Z,50.80
2018-04-22T17:47:43.852Z,50.80
2018-04-22T17:50:11.376Z,51.40
2018-04-22T17:52:38.947Z,52.00
2018-04-22T17:55:07.204Z,53.30
2018-04-22T17:57:34.688Z,53.30
2018-04-22T18:00:02.928Z,54.70
2018-04-22T18:02:30.417Z,54.60
2018-04-22T18:04:58.676Z,55.60
2018-04-22T18:07:26.149Z,55.50
2018-04-22T18:09:54.407Z,56.50
2018-04-22T18:12:21.883Z,56.40
2018-04-22T18:14:50.160Z,57.20
2018-04-22T18:17:18.387Z,57.70
2018-04-22T18:19:45.905Z,57.60
2018-04-22T18:22:13.405Z,58.10
2018-04-22T18:24:40.912Z,58.30
2018-04-22T18:27:09.157Z,58.60
2018-04-22T18:29:36.873Z,58.50
2018-04-22T18:32:04.392Z,58.40
2018-04-22T18:34:31.879Z,58.40
2018-04-22T18:36:59.353Z,58.30
2018-04-22T18:39:26.845Z,58.30
2018-04-22T18:41:54.314Z,58.40
2018-04-22T18:44:21.892Z,58.40
2018-04-22T18:46:50.141Z,58.90
2018-04-22T18:49:17.640Z,58.80
2018-04-22T18:51:45.873Z,59.50
2018-04-22T18:54:13.390Z,59.40
2018-04-22T18:56:40.855Z,59.70
2018-04-22T18:59:09.123Z,60.90
2018-04-22T19:01:36.718Z,60.70
2018-04-22T19:04:04.200Z,61.20
2018-04-22T19:06:31.655Z,61.60
2018-04-22T19:08:59.139Z,61.90
2018-04-22T19:11:26.627Z,62.10
2018-04-22T19:13:54.880Z,62.10
2018-04-22T19:16:22.478Z,62.10
2018-04-22T19:18:49.985Z,62.50
2018-04-22T19:21:17.453Z,62.40
2018-04-22T19:23:44.943Z,62.70
2018-04-22T19:26:13.197Z,62.90
2018-04-22T19:28:40.728Z,62.90
2018-04-22T19:31:08.229Z,64.10
2018-04-22T19:33:36.486Z,63.70
2018-04-22T19:36:03.951Z,63.70
2018-04-22T19:38:31.459Z,64.00
2018-04-22T19:40:58.929Z,64.60
2018-04-22T19:43:26.468Z,64.50
2018-04-22T19:45:53.943Z,64.80
2018-04-22T19:48:21.446Z,65.10
2018-04-22T19:50:49.707Z,66.00
2018-04-22T19:53:17.172Z,65.80
2018-04-22T19:55:44.653Z,66.30
2018-04-22T19:58:12.126Z,67.30
2018-04-22T20:00:39.603Z,67.00
2018-04-22T20:03:07.060Z,67.40
2018-04-22T20:05:34.552Z,67.70
2018-04-22T20:08:02.028Z,68.00
2018-04-22T20:10:30.332Z,68.60
2018-04-22T20:12:57.804Z,68.60
2018-04-22T20:15:25.305Z,68.90
2018-04-22T20:17:52.803Z,69.40
2018-04-22T20:20:20.369Z,70.40
2018-04-22T20:22:47.928Z,69.80
2018-04-22T20:25:15.439Z,69.80
2018-04-22T20:27:42.932Z,70.00
2018-04-22T20:30:10.425Z,70.10
2018-04-22T20:32:37.894Z,70.40
2018-04-22T20:35:05.375Z,70.50
2018-04-22T20:37:33.627Z,71.50
2018-04-22T20:40:01.145Z,70.70
2018-04-22T20:42:28.685Z,71.00
2018-04-22T20:44:56.158Z,71.10
2018-04-22T20:47:24.580Z,71.50
2018-04-22T20:49:52.074Z,71.40
2018-04-22T20:52:20.307Z,71.70
2018-04-22T20:54:47.830Z,71.70
2018-04-22T20:57:15.339Z,72.10
2018-04-22T20:59:43.586Z,72.60
2018-04-22T21:02:11.064Z,72.60
2018-04-22T21:04:38.536Z,72.90
2018-04-22T21:07:05.996Z,73.00
2018-04-22T21:09:33.489Z,72.90
2018-04-22T21:12:01.044Z,73.20
2018-04-22T21:14:28.520Z,73.20
2018-04-22T21:16:55.983Z,73.40
2018-04-22T21:19:23.573Z,73.60
2018-04-22T21:21:51.042Z,73.90
2018-04-22T21:24:18.548Z,74.10
2018-04-22T21:26:46.011Z,74.80
2018-04-22T21:29:13.560Z,74.50
2018-04-22T21:31:41.024Z,74.50
2018-04-22T21:34:08.544Z,74.60
2018-04-22T21:36:36.780Z,75.30
2018-04-22T21:39:05.027Z,75.20
2018-04-22T21:41:32.493Z,75.30
2018-04-22T21:44:00.005Z,75.60
2018-04-22T21:46:28.252Z,77.00
2018-04-22T21:48:55.775Z,76.00
2018-04-22T21:51:23.261Z,76.40
2018-04-22T21:53:50.733Z,76.80
2018-04-22T21:56:18.251Z,77.00
2018-04-22T21:58:45.732Z,77.10
2018-04-22T22:01:13.216Z,77.60
2018-04-22T22:03:40.796Z,77.60
2018-04-22T22:06:09.307Z,78.30
2018-04-22T22:08:36.775Z,78.20
2018-04-22T22:11:04.280Z,78.60
2018-04-22T22:13:31.926Z,79.00
2018-04-22T22:15:59.435Z,79.30
2018-04-22T22:18:26.921Z,79.30
2018-04-22T22:20:54.395Z,79.70
2018-04-22T22:23:21.876Z,80.00
2018-04-22T22:25:49.390Z,80.30
2018-04-22T22:28:16.902Z,80.50
2018-04-22T22:30:45.145Z,80.80
2018-04-22T22:33:12.627Z,80.80
2018-04-22T22:35:40.891Z,80.90
2018-04-22T22:38:09.152Z,81.20
2018-04-22T22:40:36.609Z,81.20
2018-04-22T22:43:04.079Z,81.30
2018-04-22T22:45:31.564Z,81.40
2018-04-22T22:47:59.038Z,81.60
2018-04-22T22:50:26.523Z,81.80
2018-04-22T22:52:54.026Z,82.20
2018-04-22T22:55:22.310Z,83.00
2018-04-22T22:57:50.575Z,82.40
2018-04-22T23:00:22.520Z,82.30
2018-04-22T23:02:50.061Z,82.40
2018-04-22T23:05:17.552Z,82.40
2018-04-22T23:07:45.780Z,82.50
2018-04-22T23:10:19.315Z,82.50
2018-04-22T23:12:46.794Z,82.40
2018-04-22T23:15:14.287Z,83.30
2018-04-22T23:17:41.752Z,82.70
2018-04-22T23:20:09.268Z,82.80
2018-04-22T23:22:36.738Z,82.90
2018-04-22T23:25:04.220Z,83.20
2018-04-22T23:27:31.759Z,83.50
2018-04-22T23:29:59.226Z,83.50
2018-04-22T23:32:26.783Z,83.90
2018-04-22T23:34:55.045Z,84.40
2018-04-22T23:37:22.591Z,84.40
2018-04-22T23:39:50.884Z,84.30
2018-04-22T23:42:18.420Z,84.20
2018-04-22T23:44:46.652Z,85.00
2018-04-22T23:47:14.155Z,85.00
2018-04-22T23:49:42.387Z,85.40
2018-04-22T23:52:09.981Z,85.40
2018-04-22T23:54:38.209Z,85.90
2018-04-22T23:57:05.728Z,85.90
2018-04-22T23:59:33.942Z,86.00
